Secaucus, New Jersey
Current Conditions -  °F | °C
As of 9:25 AM on Tuesday 27 Jan 2015 (Local Time) from KTEB Reporting Station
Light Snow Light Snow  
Wind Chill:   Ceiling: 3300
Heat Index: 21°   Visibility: 2mi
Dew Point: 16°   Wind: 13mph
Humidity: 80%   Direction: 340°NNW
Pressure: 29.7"   Gusts: 21mph
Location:  40.79°N, 74.05°W
Report Text: KTEB 271425Z 34011G18KT 2SM -SN BR BKN033 OVC044 M06/M09 A2970 RMK AO2 P0000
Loading
Personal Weather Stations






























Interactive Weather Map New forecast layout! Learn more

10-Day Weather Forecast

Advertisements
Track Severe Weather on mobile